Time;durP1;ratioP1;P1;durP2;ratioP2;P2;SDS_P1;SDS_P2;PMS_P1;PMS_P2;Temp;Humidity;BMP_temperature;BMP_pressure;BME280_temperature;BME280_humidity;BME280_pressure;Samples;Min_cycle;Max_cycle;Signal;HPM_P1;HPM_P2
2022/01/16 00:04:06;;;;;;;57.28;15.85;;;1.80;76.70;;;;;;5107924;27;46334;-68
2022/01/16 00:06:33;;;;;;;57.60;15.10;;;1.80;76.60;;;;;;5111982;27;46536;-65
2022/01/16 00:08:59;;;;;;;118.80;18.77;;;1.80;76.80;;;;;;5111886;27;47791;-65
2022/01/16 00:11:25;;;;;;;38.63;15.93;;;1.80;77.00;;;;;;5114611;27;46337;-64
2022/01/16 00:13:51;;;;;;;37.28;14.43;;;1.80;76.80;;;;;;5104468;27;46360;-65
2022/01/16 00:16:17;;;;;;;38.38;14.68;;;1.80;76.70;;;;;;5109367;27;46384;-65
2022/01/16 00:18:52;;;;;;;44.33;14.30;;;1.90;76.70;;;;;;5104075;27;47739;-65
2022/01/16 00:21:26;;;;;;;56.70;15.85;;;1.90;76.80;;;;;;5100883;27;46452;-66
2022/01/16 00:23:53;;;;;;;33.88;14.35;;;1.90;76.80;;;;;;5104576;27;46442;-65
2022/01/16 00:26:19;;;;;;;36.33;14.35;;;1.80;76.80;;;;;;5104215;27;46833;-67
2022/01/16 00:28:45;;;;;;;32.60;13.15;;;1.80;76.80;;;;;;5105064;27;48226;-67
2022/01/16 00:31:11;;;;;;;32.88;14.48;;;1.70;76.90;;;;;;5103390;27;46428;-66
2022/01/16 00:33:42;;;;;;;35.25;14.85;;;1.80;77.00;;;;;;5103718;27;46216;-67
2022/01/16 00:36:08;;;;;;;30.77;13.23;;;1.80;76.70;;;;;;5104022;27;46399;-67
2022/01/16 00:38:34;;;;;;;29.05;12.45;;;1.80;76.70;;;;;;5107652;27;47393;-66
2022/01/16 00:41:01;;;;;;;23.70;12.13;;;1.80;76.80;;;;;;5103488;27;46522;-67
2022/01/16 00:43:27;;;;;;;27.33;11.52;;;1.70;76.80;;;;;;5105642;27;45778;-67
2022/01/16 00:45:52;;;;;;;24.00;11.43;;;1.80;76.80;;;;;;5111512;27;46376;-65
2022/01/16 00:48:18;;;;;;;22.67;11.57;;;1.70;77.00;;;;;;5104039;27;47916;-67
2022/01/16 00:50:44;;;;;;;26.53;11.90;;;1.70;77.00;;;;;;5104471;27;46400;-66
2022/01/16 00:53:09;;;;;;;26.60;12.93;;;1.70;77.00;;;;;;5103278;27;45910;-66
2022/01/16 00:55:38;;;;;;;26.50;12.20;;;1.70;77.00;;;;;;5104774;27;46370;-67
2022/01/16 00:58:03;;;;;;;27.35;13.07;;;1.80;77.00;;;;;;5104542;27;48024;-66
2022/01/16 01:00:32;;;;;;;30.83;12.70;;;1.80;76.80;;;;;;5103172;27;46719;-66
2022/01/16 01:02:58;;;;;;;32.50;12.52;;;1.80;76.90;;;;;;5093900;27;46256;-65
2022/01/16 01:05:24;;;;;;;30.27;12.57;;;1.70;76.90;;;;;;5109196;27;46579;-67
2022/01/16 01:07:50;;;;;;;34.57;15.03;;;1.70;77.20;;;;;;5109139;27;46400;-67
2022/01/16 01:10:16;;;;;;;29.88;12.57;;;1.70;77.20;;;;;;5104500;27;46487;-67
2022/01/16 01:13:08;;;;;;;34.60;13.10;;;1.70;77.30;;;;;;5103285;27;46089;-66
2022/01/16 01:15:44;;;;;;;30.85;12.13;;;1.70;77.30;;;;;;5105140;27;46378;-66
2022/01/16 01:18:10;;;;;;;38.33;13.82;;;1.70;77.10;;;;;;5108828;27;46344;-65
2022/01/16 01:20:38;;;;;;;34.88;13.00;;;1.80;77.10;;;;;;5104165;27;46340;-66
2022/01/16 01:23:04;;;;;;;53.47;14.35;;;1.80;77.00;;;;;;5103435;27;46260;-66
2022/01/16 01:25:30;;;;;;;37.93;13.40;;;1.80;77.00;;;;;;5105946;27;46430;-65
2022/01/16 01:27:56;;;;;;;40.30;15.37;;;1.80;77.00;;;;;;5105974;27;48080;-66
2022/01/16 01:30:24;;;;;;;41.20;14.40;;;1.80;77.20;;;;;;5104736;27;46480;-66
2022/01/16 01:32:49;;;;;;;41.40;15.00;;;1.80;77.20;;;;;;5105868;27;45826;-67
2022/01/16 01:35:18;;;;;;;41.33;14.47;;;1.80;76.90;;;;;;5105390;27;46400;-66
2022/01/16 01:37:45;;;;;;;39.67;16.30;;;1.80;76.50;;;;;;5102928;27;48030;-66
2022/01/16 01:40:15;;;;;;;37.08;14.93;;;1.90;76.40;;;;;;5102585;27;46298;-65
2022/01/16 01:42:45;;;;;;;37.25;14.32;;;1.80;76.50;;;;;;5121618;27;46115;-65
2022/01/16 01:51:22;;;;;;;30.27;15.85;;;1.70;76.40;;;;;;5104375;27;46478;-64
2022/01/16 01:53:29;;;;;;;31.00;15.00;;;1.70;76.40;;;;;;5100131;27;46322;-65
2022/01/16 01:55:55;;;;;;;33.63;14.85;;;1.60;76.40;;;;;;5095333;27;46445;-66
2022/01/16 01:58:20;;;;;;;29.73;15.10;;;1.60;76.70;;;;;;5102259;27;47190;-66
2022/01/16 02:00:46;;;;;;;35.10;14.90;;;1.60;76.90;;;;;;5102520;27;46376;-66
2022/01/16 02:03:17;;;;;;;31.80;14.70;;;1.60;76.80;;;;;;5102904;27;45796;-66
2022/01/16 02:05:44;;;;;;;37.53;15.25;;;1.60;76.90;;;;;;5103110;27;46325;-65
2022/01/16 02:08:11;;;;;;;35.20;15.15;;;1.60;76.60;;;;;;5091341;27;47680;-66
2022/01/16 02:10:38;;;;;;;49.60;15.57;;;1.60;76.70;;;;;;5100212;27;46379;-67
2022/01/16 02:13:07;;;;;;;36.42;15.73;;;1.60;76.70;;;;;;5108202;27;46419;-66
2022/01/16 02:31:45;;;;;;;26.05;14.07;;;1.50;77.10;;;;;;5101414;27;46247;-67
2022/01/16 02:36:59;;;;;;;32.72;15.38;;;1.50;77.10;;;;;;5107579;27;45758;-66
2022/01/16 02:39:29;;;;;;;31.75;14.48;;;1.60;77.00;;;;;;5104439;27;47899;-66
2022/01/16 02:41:57;;;;;;;36.90;15.18;;;1.60;76.80;;;;;;5119636;27;46517;-67
2022/01/16 02:44:32;;;;;;;25.25;13.73;;;1.60;76.70;;;;;;5093973;27;46405;-67
2022/01/16 02:46:59;;;;;;;32.88;15.00;;;1.70;76.70;;;;;;5111488;27;46491;-66
2022/01/16 02:49:33;;;;;;;27.20;13.40;;;1.60;76.80;;;;;;5088605;27;48708;-67
2022/01/16 02:52:03;;;;;;;35.75;14.32;;;1.60;76.90;;;;;;5102899;27;46614;-67
2022/01/16 02:54:34;;;;;;;42.15;15.07;;;1.60;77.00;;;;;;5101814;27;46428;-66
2022/01/16 02:57:01;;;;;;;25.10;12.85;;;1.60;76.90;;;;;;5093661;27;46462;-66
2022/01/16 02:59:26;;;;;;;25.55;13.82;;;1.50;77.00;;;;;;5103437;27;46388;-64
2022/01/16 03:01:52;;;;;;;33.87;14.83;;;1.40;77.10;;;;;;5108223;27;46340;-67
2022/01/16 03:04:18;;;;;;;34.78;13.93;;;1.40;77.30;;;;;;5104020;27;46373;-67
2022/01/16 03:06:44;;;;;;;31.55;14.00;;;1.30;77.60;;;;;;5102583;27;46223;-67
2022/01/16 03:09:11;;;;;;;32.35;15.52;;;1.20;77.50;;;;;;5101940;27;47946;-67
2022/01/16 03:11:48;;;;;;;25.25;15.02;;;1.20;77.40;;;;;;5113139;27;46368;-67
2022/01/16 03:14:17;;;;;;;28.17;13.65;;;1.20;77.50;;;;;;5089618;27;46511;-66
2022/01/16 03:16:48;;;;;;;30.83;13.80;;;1.10;77.50;;;;;;5094881;27;46581;-67
2022/01/16 03:22:03;;;;;;;41.88;13.95;;;1.10;77.50;;;;;;5104703;27;46457;-66
2022/01/16 03:24:36;;;;;;;44.50;16.20;;;1.10;77.50;;;;;;5099661;27;46429;-65
2022/01/16 03:27:18;;;;;;;38.53;15.23;;;1.10;77.50;;;;;;5101631;27;46406;-65
2022/01/16 03:29:46;;;;;;;25.70;13.32;;;1.10;77.40;;;;;;5103146;27;48884;-67
2022/01/16 03:32:16;;;;;;;41.08;13.57;;;1.00;77.20;;;;;;5100630;27;46583;-66
2022/01/16 03:34:41;;;;;;;30.90;14.20;;;1.00;77.40;;;;;;5108374;27;46390;-64
2022/01/16 03:37:07;;;;;;;26.70;14.50;;;0.90;77.60;;;;;;5104705;27;46631;-67
2022/01/16 03:39:33;;;;;;;31.23;13.90;;;0.90;77.60;;;;;;5104154;27;47880;-66
2022/01/16 03:42:01;;;;;;;31.10;15.83;;;1.00;77.50;;;;;;5102612;27;46665;-66
2022/01/16 03:44:27;;;;;;;25.33;15.23;;;1.00;77.30;;;;;;5115426;27;46373;-66
2022/01/16 03:46:53;;;;;;;33.45;16.30;;;1.00;77.40;;;;;;5102798;27;46442;-66
2022/01/16 03:49:25;;;;;;;34.53;17.73;;;1.10;77.30;;;;;;5103118;27;47982;-66
2022/01/16 03:51:52;;;;;;;30.25;16.98;;;1.10;77.30;;;;;;5110073;27;46643;-66
2022/01/16 03:54:21;;;;;;;26.38;15.88;;;1.10;77.40;;;;;;5107773;27;46321;-67
2022/01/16 03:56:50;;;;;;;30.50;16.67;;;1.10;77.30;;;;;;5108136;27;46705;-64
2022/01/16 03:59:16;;;;;;;28.30;17.02;;;1.10;77.20;;;;;;5105156;27;47889;-66
2022/01/16 04:01:43;;;;;;;31.52;17.65;;;1.20;78.40;;;;;;5106698;27;46461;-68
2022/01/16 04:04:09;;;;;;;31.42;16.80;;;1.20;78.40;;;;;;5106834;27;46395;-67
2022/01/16 04:06:35;;;;;;;27.38;17.10;;;1.20;77.20;;;;;;5105999;27;46349;-66
2022/01/16 04:09:02;;;;;;;31.20;16.80;;;1.20;77.20;;;;;;5105324;27;47365;-65
2022/01/16 04:11:29;;;;;;;29.25;17.48;;;1.20;77.30;;;;;;5109240;27;46439;-67
2022/01/16 04:14:10;;;;;;;28.38;16.80;;;1.20;77.20;;;;;;5104549;27;46405;-67
2022/01/16 04:16:37;;;;;;;29.75;16.52;;;1.20;77.30;;;;;;5109725;27;46259;-67
2022/01/16 04:19:04;;;;;;;31.27;17.33;;;1.20;77.30;;;;;;5101263;27;48815;-67
2022/01/16 04:21:30;;;;;;;31.20;16.90;;;1.20;77.20;;;;;;5105779;27;46409;-67
2022/01/16 04:23:56;;;;;;;28.83;17.60;;;1.30;77.00;;;;;;5105202;27;46502;-68
2022/01/16 04:26:25;;;;;;;29.35;16.58;;;1.30;77.00;;;;;;5105203;27;46561;-67
2022/01/16 04:28:53;;;;;;;29.83;17.38;;;1.30;76.90;;;;;;5104089;27;47865;-66
2022/01/16 04:31:19;;;;;;;29.50;17.02;;;1.40;76.90;;;;;;5105079;27;46358;-64
2022/01/16 04:33:45;;;;;;;32.37;17.43;;;1.40;76.80;;;;;;5104599;27;46439;-67
2022/01/16 04:36:11;;;;;;;33.05;17.65;;;1.40;76.80;;;;;;5105883;27;46352;-66
2022/01/16 04:38:44;;;;;;;29.90;16.95;;;1.40;76.80;;;;;;5103451;27;48000;-65
2022/01/16 04:43:54;;;;;;;32.00;17.90;;;1.50;76.60;;;;;;5111133;27;46403;-64
2022/01/16 04:46:22;;;;;;;31.30;17.13;;;1.50;76.50;;;;;;5105781;27;46430;-66
2022/01/16 04:48:49;;;;;;;31.27;18.30;;;1.40;76.80;;;;;;5104701;27;48015;-67
2022/01/16 04:51:15;;;;;;;32.53;17.95;;;1.50;76.70;;;;;;5105531;27;46306;-66
2022/01/16 04:53:41;;;;;;;35.78;18.92;;;1.40;76.80;;;;;;5103519;27;46420;-64
2022/01/16 04:56:08;;;;;;;34.38;18.35;;;1.20;77.00;;;;;;5103655;27;46194;-66
2022/01/16 04:58:34;;;;;;;36.05;17.48;;;1.20;77.40;;;;;;5104104;27;46353;-67
2022/01/16 05:01:01;;;;;;;33.13;17.00;;;1.10;77.50;;;;;;5105818;27;46412;-68
2022/01/16 05:03:28;;;;;;;35.42;18.17;;;1.20;77.60;;;;;;5104514;27;46343;-66
2022/01/16 05:05:55;;;;;;;35.97;17.73;;;1.10;77.50;;;;;;5104848;27;46595;-66
2022/01/16 05:08:21;;;;;;;37.65;19.25;;;1.00;77.80;;;;;;5104154;27;48757;-66
2022/01/16 05:10:47;;;;;;;33.13;17.90;;;1.00;77.90;;;;;;5102962;27;46342;-64
2022/01/16 05:16:35;;;;;;;32.60;17.65;;;1.10;77.60;;;;;;5103045;27;45861;-65
2022/01/16 05:18:46;;;;;;;32.85;18.15;;;1.30;77.20;;;;;;5106033;27;46516;-65
2022/01/16 05:21:12;;;;;;;35.40;19.30;;;1.30;77.00;;;;;;5103844;27;45854;-67
2022/01/16 05:23:39;;;;;;;35.17;18.10;;;1.30;76.80;;;;;;5107056;27;46396;-65
2022/01/16 05:26:06;;;;;;;33.15;19.02;;;1.30;76.70;;;;;;5103725;27;46277;-65
2022/01/16 05:28:32;;;;;;;34.78;19.30;;;1.40;76.50;;;;;;5104232;27;46931;-65
2022/01/16 05:30:58;;;;;;;35.67;20.53;;;1.40;76.40;;;;;;5105110;27;46388;-65
2022/01/16 05:33:24;;;;;;;30.90;18.17;;;1.30;76.60;;;;;;5104026;27;46227;-65
2022/01/16 05:35:49;;;;;;;31.00;18.83;;;1.30;76.80;;;;;;5110963;27;46396;-65
2022/01/16 05:38:15;;;;;;;40.00;21.30;;;1.10;77.00;;;;;;5105322;27;48070;-66
2022/01/16 05:40:43;;;;;;;36.50;20.03;;;1.10;77.50;;;;;;5103831;27;46494;-66
2022/01/16 05:43:08;;;;;;;36.38;20.05;;;1.10;77.30;;;;;;5102422;27;46274;-65
2022/01/16 05:45:35;;;;;;;39.10;20.42;;;1.20;77.10;;;;;;5102500;27;46355;-66
2022/01/16 05:48:00;;;;;;;36.45;19.85;;;1.20;76.90;;;;;;5102993;27;46315;-67
2022/01/16 05:50:26;;;;;;;38.67;20.10;;;1.20;76.70;;;;;;5103241;27;46309;-66
2022/01/16 05:52:52;;;;;;;33.43;18.97;;;1.20;76.70;;;;;;5107040;27;46432;-67
2022/01/16 05:55:19;;;;;;;35.37;19.17;;;1.20;76.90;;;;;;5104422;27;46546;-65
2022/01/16 05:57:45;;;;;;;36.40;19.63;;;1.10;77.10;;;;;;5104963;27;47878;-67
2022/01/16 06:00:14;;;;;;;37.80;20.90;;;1.00;77.30;;;;;;5104843;27;46634;-65
2022/01/16 06:02:40;;;;;;;40.70;19.80;;;0.90;77.40;;;;;;5107631;27;46376;-67
2022/01/16 06:05:07;;;;;;;38.45;20.70;;;0.90;77.30;;;;;;5106098;27;46517;-66
2022/01/16 06:07:33;;;;;;;38.15;20.13;;;0.80;77.70;;;;;;5106454;27;46458;-65
2022/01/16 06:09:59;;;;;;;43.03;21.40;;;0.80;77.60;;;;;;5102960;27;46460;-66
2022/01/16 06:12:25;;;;;;;41.55;21.15;;;0.80;77.50;;;;;;5103966;27;46415;-66
2022/01/16 06:14:51;;;;;;;37.43;20.20;;;0.90;77.60;;;;;;5100944;27;46344;-66
2022/01/16 06:17:17;;;;;;;43.53;21.35;;;0.90;77.30;;;;;;5101791;27;48057;-64
2022/01/16 06:19:42;;;;;;;47.43;21.77;;;0.90;77.20;;;;;;5106029;27;46439;-65
2022/01/16 06:22:08;;;;;;;43.20;21.07;;;0.90;77.00;;;;;;5103144;27;46392;-65
2022/01/16 06:24:34;;;;;;;44.17;22.07;;;1.00;76.80;;;;;;5105166;27;46293;-66
2022/01/16 06:26:59;;;;;;;41.93;20.80;;;1.00;77.10;;;;;;5103328;27;48159;-65
2022/01/16 06:29:26;;;;;;;47.00;21.53;;;1.10;76.50;;;;;;5106095;27;46490;-67
2022/01/16 06:31:51;;;;;;;39.50;20.45;;;1.10;76.50;;;;;;5100921;27;46276;-67
2022/01/16 06:34:18;;;;;;;40.00;20.90;;;1.00;76.60;;;;;;5103864;27;46349;-67
2022/01/16 06:36:44;;;;;;;41.67;20.10;;;0.90;77.00;;;;;;5091613;27;47843;-64
2022/01/16 06:39:12;;;;;;;42.33;21.45;;;0.70;77.40;;;;;;5104026;27;45920;-66
2022/01/16 06:41:38;;;;;;;44.60;21.13;;;0.50;77.80;;;;;;5103901;27;47065;-67
2022/01/16 06:44:05;;;;;;;48.03;28.40;;;0.50;78.20;;;;;;5109865;27;45974;-66
2022/01/16 06:46:31;;;;;;;48.67;22.88;;;0.40;78.10;;;;;;5101223;27;47911;-64
2022/01/16 06:48:58;;;;;;;46.78;22.35;;;0.40;78.80;;;;;;5106632;27;45949;-65
2022/01/16 06:51:24;;;;;;;44.08;22.38;;;0.50;78.80;;;;;;5104156;27;46400;-67
2022/01/16 06:53:53;;;;;;;50.72;25.13;;;0.50;78.40;;;;;;5097815;27;46584;-65
2022/01/16 06:56:20;;;;;;;59.90;30.23;;;0.60;78.10;;;;;;5123853;27;47110;-64
2022/01/16 06:58:46;;;;;;;62.80;30.42;;;0.60;77.80;;;;;;5107733;27;46241;-64
2022/01/16 07:01:13;;;;;;;47.67;24.67;;;0.60;77.80;;;;;;5104227;27;46349;-66
2022/01/16 07:03:40;;;;;;;58.20;27.40;;;0.50;78.00;;;;;;5104786;27;46452;-66
2022/01/16 07:06:06;;;;;;;53.92;25.58;;;0.40;78.00;;;;;;5108641;27;47738;-66
2022/01/16 07:08:34;;;;;;;48.23;24.33;;;0.30;78.20;;;;;;5105026;27;46455;-66
2022/01/16 07:11:01;;;;;;;48.70;24.00;;;0.20;78.30;;;;;;5107414;27;46387;-68
2022/01/16 07:13:28;;;;;;;40.78;20.92;;;0.00;78.30;;;;;;5106971;27;46356;-65
2022/01/16 07:15:55;;;;;;;45.28;22.33;;;0.00;78.70;;;;;;5107698;27;47821;-67
2022/01/16 07:18:22;;;;;;;51.85;22.23;;;-0.10;78.60;;;;;;5103362;27;46027;-67
2022/01/16 07:20:47;;;;;;;47.65;22.83;;;-0.20;78.50;;;;;;5106062;27;46336;-64
2022/01/16 07:23:14;;;;;;;49.73;25.90;;;-0.20;78.50;;;;;;5105793;27;46569;-65
2022/01/16 07:25:41;;;;;;;57.50;32.67;;;-0.20;78.60;;;;;;5107645;27;48333;-66
2022/01/16 07:28:07;;;;;;;57.78;26.02;;;-0.20;78.60;;;;;;5107690;27;46492;-65
2022/01/16 07:30:34;;;;;;;57.63;29.25;;;-0.30;78.40;;;;;;5111530;27;46461;-65
2022/01/16 07:32:59;;;;;;;50.67;26.70;;;-0.30;78.40;;;;;;5109688;27;46276;-66
2022/01/16 07:35:25;;;;;;;51.37;26.07;;;-0.20;78.40;;;;;;5104986;27;48150;-66
2022/01/16 07:37:52;;;;;;;47.70;25.20;;;-0.30;78.30;;;;;;5107172;27;46440;-66
2022/01/16 07:40:20;;;;;;;46.17;22.20;;;-0.30;78.20;;;;;;5106732;27;46432;-63
2022/01/16 07:42:46;;;;;;;46.83;22.55;;;-0.20;78.20;;;;;;5110920;27;46307;-64
2022/01/16 07:45:12;;;;;;;49.15;23.92;;;-0.20;78.10;;;;;;5106953;27;47344;-67
2022/01/16 07:47:38;;;;;;;54.37;23.27;;;-0.20;78.10;;;;;;5104390;27;46830;-66
2022/01/16 07:50:08;;;;;;;54.78;25.38;;;-0.20;77.90;;;;;;5107463;27;46481;-65
2022/01/16 07:52:34;;;;;;;47.00;23.00;;;-0.10;77.70;;;;;;5108055;27;46364;-66
2022/01/16 07:55:00;;;;;;;48.90;25.92;;;-0.10;77.80;;;;;;5105227;27;47987;-66
2022/01/16 07:57:26;;;;;;;51.47;24.88;;;-0.10;77.80;;;;;;5106743;27;46600;-65
2022/01/16 07:59:52;;;;;;;49.27;24.53;;;0.00;77.70;;;;;;5106927;27;45787;-64
2022/01/16 08:02:18;;;;;;;46.90;23.53;;;-0.10;77.60;;;;;;5105295;27;46662;-66
2022/01/16 08:04:44;;;;;;;49.95;23.88;;;0.00;77.60;;;;;;5102913;27;48006;-65
2022/01/16 08:07:10;;;;;;;55.90;25.20;;;0.00;77.50;;;;;;5106407;27;46438;-66
2022/01/16 08:09:41;;;;;;;50.08;23.83;;;0.10;78.50;;;;;;5105704;27;46425;-66
2022/01/16 08:12:07;;;;;;;52.17;26.55;;;0.10;77.10;;;;;;5104894;27;46299;-66
2022/01/16 08:14:34;;;;;;;61.88;29.70;;;0.20;77.10;;;;;;5105647;27;48004;-65
2022/01/16 08:17:01;;;;;;;59.85;29.60;;;0.20;77.10;;;;;;5105938;27;46423;-64
2022/01/16 08:19:28;;;;;;;48.70;24.20;;;0.30;77.10;;;;;;5108302;27;46396;-65
2022/01/16 08:21:54;;;;;;;50.33;24.20;;;0.30;77.20;;;;;;5108022;27;46003;-64
2022/01/16 08:24:19;;;;;;;45.47;24.80;;;0.40;77.10;;;;;;5103602;27;48859;-65
2022/01/16 08:26:45;;;;;;;45.10;23.20;;;0.50;77.20;;;;;;5103721;27;46270;-64
2022/01/16 08:29:12;;;;;;;42.47;20.42;;;0.50;77.20;;;;;;5107014;27;46356;-66
2022/01/16 08:31:38;;;;;;;40.00;20.88;;;0.60;77.20;;;;;;5093317;27;46411;-66
2022/01/16 08:34:04;;;;;;;36.97;20.50;;;0.70;77.20;;;;;;5093475;27;47456;-65
2022/01/16 08:36:30;;;;;;;46.77;20.60;;;0.70;77.00;;;;;;5104945;27;46372;-65
2022/01/16 08:38:56;;;;;;;43.40;21.20;;;0.80;77.00;;;;;;5104755;27;46347;-66
2022/01/16 08:41:22;;;;;;;40.15;20.50;;;0.90;77.10;;;;;;5105781;27;46518;-66
2022/01/16 08:43:48;;;;;;;39.00;21.30;;;1.00;77.10;;;;;;5104444;27;48777;-65
2022/01/16 08:46:14;;;;;;;40.60;21.37;;;1.10;77.10;;;;;;5105767;27;46381;-65
2022/01/16 08:48:40;;;;;;;32.10;17.33;;;1.20;77.30;;;;;;5108185;27;45810;-66
2022/01/16 08:51:07;;;;;;;34.95;18.27;;;1.20;77.20;;;;;;5103079;27;46364;-65
2022/01/16 08:53:33;;;;;;;34.03;19.30;;;1.40;77.20;;;;;;5106558;27;47810;-67
2022/01/16 08:55:59;;;;;;;32.13;17.80;;;1.50;77.20;;;;;;5105739;27;46384;-65
2022/01/16 08:58:25;;;;;;;35.22;18.38;;;1.60;77.10;;;;;;5102945;27;46453;-66
2022/01/16 09:00:51;;;;;;;32.35;17.35;;;1.70;77.00;;;;;;5107127;27;46591;-66
2022/01/16 09:03:19;;;;;;;34.53;17.70;;;1.70;76.90;;;;;;5103315;27;46596;-64
2022/01/16 09:05:46;;;;;;;34.42;17.58;;;1.80;76.90;;;;;;5092605;27;46403;-65
2022/01/16 09:08:12;;;;;;;31.20;15.85;;;2.00;76.80;;;;;;5105490;27;46246;-65
2022/01/16 09:10:39;;;;;;;34.08;17.75;;;2.00;76.70;;;;;;5106232;27;46581;-66
2022/01/16 09:13:05;;;;;;;29.00;16.23;;;2.10;76.70;;;;;;5108639;27;48070;-65
2022/01/16 09:15:30;;;;;;;26.02;14.80;;;2.20;76.60;;;;;;5104439;27;46352;-67
2022/01/16 09:17:56;;;;;;;23.53;14.20;;;2.30;76.70;;;;;;5104809;27;46618;-64
2022/01/16 09:20:22;;;;;;;26.30;14.60;;;2.40;76.70;;;;;;5109755;27;46101;-65
2022/01/16 09:22:49;;;;;;;26.70;15.70;;;2.50;76.70;;;;;;5103216;27;48983;-64
2022/01/16 09:25:17;;;;;;;27.95;15.40;;;2.40;76.60;;;;;;5102454;27;46402;-66
2022/01/16 09:27:43;;;;;;;26.27;13.77;;;2.50;76.60;;;;;;5103206;27;46281;-65
2022/01/16 09:30:10;;;;;;;24.00;14.90;;;2.60;76.70;;;;;;5102953;27;46411;-66
2022/01/16 09:32:36;;;;;;;27.48;14.52;;;2.60;76.70;;;;;;5106813;27;48525;-65
2022/01/16 09:35:04;;;;;;;24.73;14.13;;;2.60;76.70;;;;;;5102221;27;45915;-64
2022/01/16 09:37:29;;;;;;;28.67;14.50;;;2.70;77.90;;;;;;5104537;27;46406;-66
2022/01/16 09:39:58;;;;;;;25.87;13.50;;;2.70;76.80;;;;;;5105763;27;46380;-65
2022/01/16 09:42:24;;;;;;;24.60;12.98;;;2.70;76.60;;;;;;5105987;27;48074;-65
2022/01/16 09:44:50;;;;;;;22.92;12.82;;;2.60;76.40;;;;;;5106763;27;46502;-66
2022/01/16 09:47:16;;;;;;;25.55;13.50;;;2.70;76.50;;;;;;5112594;27;46446;-66
2022/01/16 09:49:42;;;;;;;22.60;12.60;;;2.60;76.20;;;;;;5103607;27;46473;-66
2022/01/16 09:52:08;;;;;;;26.40;13.50;;;2.60;75.60;;;;;;5106236;27;47390;-65
2022/01/16 09:54:36;;;;;;;25.87;12.83;;;2.70;75.80;;;;;;5102099;27;46248;-66
2022/01/16 09:57:03;;;;;;;21.13;12.60;;;2.70;75.60;;;;;;5102508;27;46363;-66
2022/01/16 09:59:29;;;;;;;19.13;11.05;;;2.70;75.30;;;;;;5103422;27;46413;-64
2022/01/16 10:01:55;;;;;;;22.03;11.47;;;2.60;74.90;;;;;;5102716;27;47828;-66
2022/01/16 10:04:37;;;;;;;20.55;12.02;;;2.60;75.00;;;;;;5106238;27;46523;-66
2022/01/16 10:07:09;;;;;;;21.58;10.45;;;2.70;75.00;;;;;;5107914;27;46512;-65
2022/01/16 10:09:37;;;;;;;24.10;11.95;;;2.80;74.80;;;;;;5100570;27;46374;-65
2022/01/16 10:12:13;;;;;;;19.33;12.40;;;2.80;74.50;;;;;;5102453;27;48668;-65
2022/01/16 10:14:49;;;;;;;21.05;12.57;;;3.00;74.40;;;;;;5102188;27;46447;-65
2022/01/16 10:17:23;;;;;;;19.55;11.80;;;3.20;74.30;;;;;;5103484;27;45822;-65
2022/01/16 10:20:01;;;;;;;16.45;9.73;;;3.30;74.10;;;;;;5115800;27;46704;-69
2022/01/16 10:22:43;;;;;;;20.80;11.15;;;3.40;73.50;;;;;;5103289;27;47753;-67
2022/01/16 10:25:10;;;;;;;19.85;9.50;;;3.40;72.60;;;;;;5091237;27;46441;-64
2022/01/16 10:27:39;;;;;;;20.27;11.27;;;3.20;72.10;;;;;;5103691;27;46361;-64
2022/01/16 10:30:09;;;;;;;18.33;10.52;;;3.20;72.10;;;;;;5094727;27;46357;-65
2022/01/16 10:32:43;;;;;;;20.17;10.88;;;3.40;72.60;;;;;;5090825;27;48716;-65
2022/01/16 10:35:17;;;;;;;24.85;11.90;;;3.40;72.30;;;;;;5103567;27;46789;-65
2022/01/16 10:37:45;;;;;;;22.20;13.00;;;3.40;72.30;;;;;;5101694;27;46507;-65
2022/01/16 10:40:14;;;;;;;19.08;11.02;;;3.50;72.30;;;;;;5103507;27;46376;-65
2022/01/16 10:42:41;;;;;;;22.27;11.18;;;3.70;72.50;;;;;;5113430;27;48000;-64
2022/01/16 10:45:15;;;;;;;17.23;10.07;;;3.90;72.70;;;;;;5106300;27;46422;-64
2022/01/16 10:47:42;;;;;;;17.98;10.73;;;3.90;72.50;;;;;;5104259;27;46357;-65
2022/01/16 10:50:10;;;;;;;19.70;9.90;;;3.80;72.10;;;;;;5104342;27;46416;-66
2022/01/16 10:53:02;;;;;;;20.15;10.65;;;3.80;71.80;;;;;;5091077;27;47867;-66
2022/01/16 10:55:51;;;;;;;17.88;10.05;;;3.70;72.10;;;;;;5088630;27;46263;-66
2022/01/16 10:58:50;;;;;;;21.38;9.35;;;3.60;71.80;;;;;;5087103;27;46427;-67
2022/01/16 11:01:16;;;;;;;19.33;10.20;;;3.50;71.80;;;;;;5116711;27;46369;-67
2022/01/16 11:03:50;;;;;;;18.25;9.77;;;3.50;71.80;;;;;;5103385;27;48658;-66
2022/01/16 11:06:21;;;;;;;17.45;10.65;;;3.60;71.80;;;;;;5103095;27;46353;-65
2022/01/16 11:08:59;;;;;;;19.30;10.70;;;3.60;71.70;;;;;;5090339;27;46361;-65
2022/01/16 11:11:25;;;;;;;16.17;9.37;;;3.60;71.70;;;;;;5106047;27;46580;-65
2022/01/16 11:13:51;;;;;;;18.50;10.70;;;3.60;71.50;;;;;;5106751;27;48012;-66
2022/01/16 11:16:17;;;;;;;18.17;10.75;;;3.50;71.50;;;;;;5102847;27;46348;-64
2022/01/16 11:18:49;;;;;;;19.02;10.07;;;3.60;71.50;;;;;;5103312;27;46464;-66
2022/01/16 11:21:18;;;;;;;22.43;11.87;;;3.60;71.30;;;;;;5093504;27;46623;-66
2022/01/16 11:26:16;;;;;;;22.02;12.55;;;3.80;70.90;;;;;;5110537;27;45887;-67
2022/01/16 11:28:42;;;;;;;17.67;9.60;;;3.80;70.50;;;;;;5109320;27;46438;-66
2022/01/16 11:31:10;;;;;;;17.20;7.80;;;3.80;70.10;;;;;;5102206;27;46367;-65
2022/01/16 11:33:38;;;;;;;15.10;8.90;;;3.80;69.50;;;;;;5104316;27;48051;-66
2022/01/16 11:36:25;;;;;;;15.00;9.35;;;3.70;69.20;;;;;;5102684;27;46451;-65
2022/01/16 11:38:56;;;;;;;22.30;10.10;;;3.80;69.40;;;;;;5098624;27;46692;-65
2022/01/16 11:41:35;;;;;;;17.07;9.97;;;3.90;69.20;;;;;;5103838;27;46466;-67
2022/01/16 11:44:04;;;;;;;18.43;9.47;;;3.90;68.80;;;;;;5100970;27;48062;-66
2022/01/16 11:46:32;;;;;;;18.50;9.68;;;3.90;68.30;;;;;;5106334;27;46435;-66
2022/01/16 11:49:03;;;;;;;18.73;9.60;;;3.90;68.50;;;;;;5113215;27;46486;-66
2022/01/16 11:51:32;;;;;;;23.50;10.83;;;3.90;68.50;;;;;;5100088;27;46604;-66
2022/01/16 11:54:01;;;;;;;17.43;11.60;;;3.90;68.80;;;;;;5100254;27;46669;-66
2022/01/16 11:56:42;;;;;;;19.02;10.98;;;4.00;68.90;;;;;;5102584;27;46293;-66
2022/01/16 11:59:15;;;;;;;17.83;9.38;;;4.20;68.70;;;;;;5101911;27;46460;-65
2022/01/16 12:01:58;;;;;;;19.93;9.97;;;4.30;68.20;;;;;;5092218;27;46627;-65
2022/01/16 12:04:29;;;;;;;18.50;10.85;;;4.40;67.10;;;;;;5100230;27;47811;-65
2022/01/16 12:07:13;;;;;;;16.20;9.57;;;4.50;67.00;;;;;;5090244;27;46468;-67
2022/01/16 12:12:14;;;;;;;18.93;10.37;;;4.50;65.80;;;;;;5110805;27;46275;-66
2022/01/16 12:14:56;;;;;;;15.13;8.50;;;4.40;65.70;;;;;;5093566;27;48151;-66
2022/01/16 12:20:13;;;;;;;20.10;11.45;;;4.50;66.20;;;;;;5106014;27;46522;-66
2022/01/16 12:22:47;;;;;;;18.63;10.50;;;4.60;66.30;;;;;;5092296;27;46415;-65
2022/01/16 12:25:30;;;;;;;18.43;9.83;;;4.70;66.40;;;;;;5101880;27;48096;-66
2022/01/16 12:28:13;;;;;;;16.67;9.30;;;4.70;66.90;;;;;;5106536;27;46327;-66
2022/01/16 12:30:52;;;;;;;18.92;11.07;;;4.70;65.10;;;;;;5105559;27;45801;-66
2022/01/16 12:33:37;;;;;;;16.60;9.53;;;4.70;65.30;;;;;;5106884;27;46319;-66
2022/01/16 12:36:30;;;;;;;14.20;7.97;;;4.70;64.90;;;;;;5090758;27;46440;-68
2022/01/16 12:39:11;;;;;;;19.25;9.48;;;4.70;64.30;;;;;;5109426;27;46435;-66
2022/01/16 12:41:45;;;;;;;20.23;10.13;;;4.70;64.00;;;;;;5103840;27;46270;-66
2022/01/16 12:44:14;;;;;;;19.40;10.23;;;4.60;64.00;;;;;;5103491;27;46328;-66
2022/01/16 12:46:43;;;;;;;16.13;8.90;;;4.70;64.50;;;;;;5086899;27;49140;-66
2022/01/16 12:49:14;;;;;;;18.45;9.55;;;4.70;64.10;;;;;;5094363;27;46428;-66
2022/01/16 12:51:43;;;;;;;17.73;9.95;;;4.70;64.00;;;;;;5097287;27;45896;-66
2022/01/16 12:54:14;;;;;;;16.87;8.90;;;4.80;64.30;;;;;;5105940;27;46428;-67
2022/01/16 12:56:46;;;;;;;18.30;9.90;;;4.80;63.90;;;;;;5103698;27;47799;-66
2022/01/16 12:59:25;;;;;;;16.05;8.82;;;4.90;64.10;;;;;;5121409;27;46365;-66
2022/01/16 13:01:57;;;;;;;25.83;8.70;;;4.90;63.00;;;;;;5100097;27;46500;-66
2022/01/16 13:04:28;;;;;;;18.13;9.50;;;5.00;63.20;;;;;;5108459;27;46357;-66
2022/01/16 13:06:56;;;;;;;14.60;8.20;;;4.90;63.20;;;;;;5102870;27;48175;-65
2022/01/16 13:09:22;;;;;;;14.53;9.13;;;5.00;63.50;;;;;;5102547;27;46453;-66
2022/01/16 13:11:54;;;;;;;15.40;8.43;;;5.10;63.30;;;;;;5105809;27;45921;-65
2022/01/16 13:14:25;;;;;;;15.50;9.03;;;5.10;62.90;;;;;;5095524;27;46580;-67
2022/01/16 13:17:19;;;;;;;15.40;9.03;;;5.20;62.70;;;;;;5108684;27;47697;-66
2022/01/16 13:19:53;;;;;;;17.40;9.10;;;5.30;62.40;;;;;;5108418;27;46400;-65
2022/01/16 13:22:23;;;;;;;15.40;9.17;;;5.30;61.40;;;;;;5104298;27;45849;-66
2022/01/16 13:25:00;;;;;;;17.77;8.50;;;5.40;61.40;;;;;;5103699;27;46463;-65
2022/01/16 13:27:26;;;;;;;15.13;8.40;;;5.40;61.30;;;;;;5101293;27;47273;-66
2022/01/16 13:29:57;;;;;;;19.87;10.37;;;5.40;60.80;;;;;;5102088;27;46444;-66